createdAt,value
2019-04-03T00:00:45.540Z,99.32
2019-04-03T00:01:45.454Z,99.22
2019-04-03T00:02:45.401Z,99.66
2019-04-03T00:03:45.384Z,99.51
2019-04-03T00:04:45.298Z,99.99
2019-04-03T00:05:45.246Z,99.99
2019-04-03T00:06:45.231Z,99.99
2019-04-03T00:07:45.144Z,99.99
2019-04-03T00:08:45.091Z,99.99
2019-04-03T00:09:45.039Z,99.99
2019-04-03T00:10:45.024Z,99.99
2019-04-03T00:11:44.968Z,99.99
2019-04-03T00:12:44.951Z,99.99
2019-04-03T00:13:44.833Z,99.99
2019-04-03T00:14:44.778Z,99.99
2019-04-03T00:15:45.282Z,99.99
2019-04-03T00:16:45.520Z,99.99
2019-04-03T00:17:45.998Z,99.99
2019-04-03T00:18:46.798Z,99.99
2019-04-03T00:19:45.778Z,99.99
2019-04-03T00:20:44.511Z,99.99
2019-04-03T00:21:44.413Z,99.99
2019-04-03T00:22:46.069Z,99.99
2019-04-03T00:23:44.309Z,99.99
2019-04-03T00:24:44.268Z,99.99
2019-04-03T00:25:44.344Z,99.99
2019-04-03T00:26:44.188Z,99.99
2019-04-03T00:27:44.104Z,99.99
2019-04-03T00:28:44.051Z,99.99
2019-04-03T00:29:44.102Z,99.99
2019-04-03T00:30:43.991Z,99.99
2019-04-03T00:31:43.899Z,99.99
2019-04-03T00:32:43.844Z,99.99
2019-04-03T00:33:43.788Z,99.99
2019-04-03T00:34:43.737Z,99.99
2019-04-03T00:35:43.722Z,99.99
2019-04-03T00:36:43.640Z,99.99
2019-04-03T00:37:43.619Z,99.99
2019-04-03T00:38:43.529Z,99.99
2019-04-03T00:39:43.474Z,99.99
2019-04-03T00:40:43.421Z,99.99
2019-04-03T00:41:43.401Z,99.99
2019-04-03T00:42:43.316Z,99.99
2019-04-03T00:43:43.264Z,99.99
2019-04-03T00:44:43.275Z,99.99
2019-04-03T00:45:43.165Z,99.99
2019-04-03T00:46:43.149Z,99.99
2019-04-03T00:47:43.059Z,99.99
2019-04-03T00:48:43.008Z,99.99
2019-04-03T00:49:42.950Z,99.99
2019-04-03T00:50:43.136Z,99.99
2019-04-03T00:51:42.881Z,99.99
2019-04-03T00:52:42.827Z,99.99
2019-04-03T00:53:42.747Z,99.99
2019-04-03T00:54:42.691Z,99.99
2019-04-03T00:55:42.644Z,99.99
2019-04-03T00:56:42.584Z,99.99
2019-04-03T00:57:42.568Z,99.99
2019-04-03T00:58:42.483Z,99.99
2019-04-03T00:59:42.431Z,99.99
2019-04-03T01:00:42.380Z,99.99
2019-04-03T01:01:42.324Z,99.99
2019-04-03T01:02:42.305Z,99.99
2019-04-03T01:03:42.224Z,99.99
2019-04-03T01:04:42.177Z,99.99
2019-04-03T01:05:42.114Z,99.99
2019-04-03T01:06:42.120Z,99.99
2019-04-03T01:07:42.039Z,99.99
2019-04-03T01:08:41.999Z,99.99
2019-04-03T01:09:41.907Z,99.99
2019-04-03T01:10:41.857Z,99.99
2019-04-03T01:11:41.805Z,99.99
2019-04-03T01:12:41.750Z,99.99
2019-04-03T01:13:41.731Z,99.99
2019-04-03T01:14:41.652Z,99.99
2019-04-03T01:15:41.594Z,99.99
2019-04-03T01:16:41.541Z,99.99
2019-04-03T01:17:41.487Z,99.99
2019-04-03T01:18:41.475Z,99.99
2019-04-03T01:19:41.403Z,99.99
2019-04-03T01:20:41.332Z,99.99
2019-04-03T01:21:41.320Z,99.99
2019-04-03T01:22:41.268Z,99.99
2019-04-03T01:23:41.174Z,99.99
2019-04-03T01:24:41.125Z,99.99
2019-04-03T01:25:41.071Z,99.99
2019-04-03T01:26:41.274Z,99.99
2019-04-03T01:27:41.543Z,99.99
2019-04-03T01:28:41.962Z,99.99
2019-04-03T01:29:42.925Z,99.99
2019-04-03T01:30:40.807Z,99.99
2019-04-03T01:31:40.755Z,99.99
2019-04-03T01:32:40.703Z,99.99
2019-04-03T01:33:40.684Z,99.99
2019-04-03T01:34:40.633Z,99.99
2019-04-03T01:35:40.595Z,99.99
2019-04-03T01:36:40.494Z,99.99
2019-04-03T01:37:40.441Z,99.99
2019-04-03T01:38:40.590Z,99.99
2019-04-03T01:39:40.377Z,99.99
2019-04-03T01:40:40.287Z,99.99
2019-04-03T01:41:40.232Z,99.99
2019-04-03T01:42:40.181Z,99.99
2019-04-03T01:43:40.129Z,99.99
2019-04-03T01:44:40.109Z,99.99
2019-04-03T01:45:40.055Z,99.99
2019-04-03T01:46:39.988Z,99.99
2019-04-03T01:47:39.929Z,99.99
2019-04-03T01:48:39.869Z,99.99
2019-04-03T01:49:39.814Z,99.99
2019-04-03T01:50:39.860Z,99.99
2019-04-03T01:51:39.712Z,99.99
2019-04-03T01:52:39.656Z,99.99
2019-04-03T01:53:39.697Z,99.99
2019-04-03T01:54:39.553Z,99.99
2019-04-03T01:55:39.671Z,99.99
2019-04-03T01:56:39.447Z,99.99
2019-04-03T01:57:39.494Z,99.99
2019-04-03T01:58:39.341Z,99.99
2019-04-03T01:59:39.444Z,99.99
2019-04-03T02:00:39.274Z,99.99
2019-04-03T02:01:39.222Z,99.65
2019-04-03T02:02:39.347Z,99.99
2019-04-03T02:03:41.169Z,99.99
2019-04-03T02:04:39.029Z,99.99
2019-04-03T02:05:38.973Z,99.99
2019-04-03T02:06:38.963Z,99.99
2019-04-03T02:07:38.869Z,99.99
2019-04-03T02:08:38.819Z,99.99
2019-04-03T02:09:38.763Z,99.99
2019-04-03T02:10:38.745Z,99.99
2019-04-03T02:11:38.662Z,99.99
2019-04-03T02:12:38.611Z,99.99
2019-04-03T02:13:38.587Z,99.99
2019-04-03T02:14:38.536Z,99.99
2019-04-03T02:15:38.454Z,99.99
2019-04-03T02:16:38.399Z,99.99
2019-04-03T02:17:38.407Z,99.99
2019-04-03T02:18:38.428Z,99.99
2019-04-03T02:19:38.276Z,99.99
2019-04-03T02:20:38.196Z,99.99
2019-04-03T02:21:38.309Z,99.99
2019-04-03T02:22:38.087Z,99.99
2019-04-03T02:23:38.032Z,99.99
2019-04-03T02:24:38.020Z,99.99
2019-04-03T02:25:37.965Z,99.99
2019-04-03T02:26:37.875Z,99.99
2019-04-03T02:27:37.889Z,99.99
2019-04-03T02:28:37.770Z,99.99
2019-04-03T02:29:37.960Z,99.99
2019-04-03T02:30:37.699Z,99.99
2019-04-03T02:31:37.628Z,99.99
2019-04-03T02:32:37.593Z,99.99
2019-04-03T02:33:37.508Z,99.99
2019-04-03T02:34:37.531Z,99.99
2019-04-03T02:35:40.114Z,99.99
2019-04-03T02:36:37.355Z,99.99
2019-04-03T02:37:37.299Z,99.99
2019-04-03T02:38:37.246Z,99.99
2019-04-03T02:39:37.199Z,99.99
2019-04-03T02:40:37.177Z,99.99
2019-04-03T02:41:37.859Z,99.99
2019-04-03T02:42:40.531Z,99.99
2019-04-03T02:43:36.992Z,99.99
2019-04-03T02:44:37.097Z,99.99
2019-04-03T02:45:37.195Z,99.99
2019-04-03T02:46:36.825Z,99.99
2019-04-03T02:47:36.830Z,99.99
2019-04-03T02:48:38.310Z,99.99
2019-04-03T02:49:36.671Z,99.99
2019-04-03T02:50:36.616Z,99.99
2019-04-03T02:51:36.563Z,99.99
2019-04-03T02:52:36.540Z,99.99
2019-04-03T02:53:36.459Z,99.99
2019-04-03T02:54:36.460Z,99.99
2019-04-03T02:55:39.340Z,99.99
2019-04-03T02:56:36.302Z,99.99
2019-04-03T02:57:36.533Z,99.99
2019-04-03T02:58:36.197Z,99.99
2019-04-03T02:59:36.298Z,99.99
2019-04-03T03:00:36.090Z,99.99
2019-04-03T03:01:38.389Z,99.99
2019-04-03T03:02:36.028Z,99.99
2019-04-03T03:03:35.948Z,99.99
2019-04-03T03:04:36.069Z,99.99
2019-04-03T03:05:35.831Z,99.99
2019-04-03T03:06:35.802Z,99.99
2019-04-03T03:07:36.464Z,99.99
2019-04-03T03:08:35.785Z,99.99
2019-04-03T03:09:35.619Z,99.99
2019-04-03T03:10:35.562Z,99.99
2019-04-03T03:11:35.510Z,99.99
2019-04-03T03:12:35.504Z,99.99
2019-04-03T03:13:35.784Z,99.99
2019-04-03T03:14:38.260Z,99.99
2019-04-03T03:15:35.298Z,99.99
2019-04-03T03:16:35.247Z,99.99
2019-04-03T03:17:35.226Z,99.99
2019-04-03T03:18:35.145Z,99.99
2019-04-03T03:19:35.088Z,99.99
2019-04-03T03:20:38.544Z,99.99
2019-04-03T03:21:35.013Z,99.99
2019-04-03T03:22:34.931Z,99.99
2019-04-03T03:23:34.875Z,99.99
2019-04-03T03:24:35.176Z,99.99
2019-04-03T03:25:34.773Z,99.99
2019-04-03T03:26:37.398Z,99.99
2019-04-03T03:27:34.669Z,99.99
2019-04-03T03:28:34.937Z,99.99
2019-04-03T03:29:34.559Z,99.99
2019-04-03T03:30:44.268Z,99.99
2019-04-03T03:32:03.502Z,99.99
2019-04-03T03:32:36.297Z,99.99
2019-04-03T03:33:37.421Z,99.99
2019-04-03T03:34:50.933Z,99.99
2019-04-03T03:35:40.437Z,99.99
2019-04-03T03:36:34.900Z,99.99
2019-04-03T03:37:35.583Z,99.99
2019-04-03T03:38:37.943Z,99.99
2019-04-03T03:39:34.035Z,99.99
2019-04-03T03:40:33.988Z,99.99
2019-04-03T03:41:33.941Z,99.99
2019-04-03T03:42:33.958Z,99.99
2019-04-03T03:43:37.254Z,99.99
2019-04-03T03:44:33.872Z,99.99
2019-04-03T03:45:33.727Z,99.99
2019-04-03T03:46:33.776Z,99.99
2019-04-03T03:47:35.115Z,99.99
2019-04-03T03:48:33.594Z,99.99
2019-04-03T03:49:33.538Z,99.99
2019-04-03T03:50:33.460Z,99.99
2019-04-03T03:51:33.752Z,99.99
2019-04-03T03:52:35.944Z,99.99
2019-04-03T03:53:33.650Z,99.99
2019-04-03T03:54:33.289Z,99.99
2019-04-03T03:55:33.241Z,99.99
2019-04-03T03:56:33.175Z,99.99
2019-04-03T03:57:33.482Z,99.99
2019-04-03T03:58:33.033Z,99.99
2019-04-03T03:59:32.989Z,99.99
2019-04-03T04:00:33.275Z,99.99
2019-04-03T04:01:32.961Z,99.99
2019-04-03T04:02:36.100Z,99.99
2019-04-03T04:03:32.776Z,99.99
2019-04-03T04:04:32.856Z,99.99
2019-04-03T04:05:32.663Z,99.99
2019-04-03T04:06:35.399Z,99.99
2019-04-03T04:07:36.458Z,99.99
2019-04-03T04:08:33.146Z,99.99
2019-04-03T04:09:32.466Z,99.99
2019-04-03T04:10:35.893Z,99.99
2019-04-03T04:11:32.529Z,99.99
2019-04-03T04:12:32.294Z,99.99
2019-04-03T04:13:32.495Z,99.99
2019-04-03T04:14:32.191Z,99.99
2019-04-03T04:15:32.415Z,99.51
2019-04-03T04:16:35.890Z,99.99
2019-04-03T04:17:32.180Z,99.99
2019-04-03T04:18:32.655Z,99.84
2019-04-03T04:19:32.444Z,99.99
2019-04-03T04:20:32.200Z,99.08
2019-04-03T04:21:31.849Z,99.99
2019-04-03T04:22:31.788Z,97.84
2019-04-03T04:23:31.713Z,96.98
2019-04-03T04:24:31.660Z,97.17
2019-04-03T04:25:31.640Z,97.08
2019-04-03T04:26:32.317Z,98.22
2019-04-03T04:27:33.592Z,95.36
2019-04-03T04:28:31.483Z,94.89
2019-04-03T04:29:31.393Z,94.70
2019-04-03T04:30:31.385Z,94.22
2019-04-03T04:31:31.508Z,96.22
2019-04-03T04:32:31.235Z,93.46
2019-04-03T04:33:31.186Z,92.89
2019-04-03T04:34:31.131Z,92.99
2019-04-03T04:35:31.107Z,94.18
2019-04-03T04:36:31.282Z,89.27
2019-04-03T04:37:31.082Z,91.56
2019-04-03T04:38:30.921Z,87.75
2019-04-03T04:39:30.862Z,88.09
2019-04-03T04:40:31.645Z,89.47
2019-04-03T04:41:32.500Z,87.65
2019-04-03T04:42:30.732Z,87.52
2019-04-03T04:43:30.651Z,91.32
2019-04-03T04:44:30.640Z,82.86
2019-04-03T04:45:33.169Z,84.95
2019-04-03T04:46:30.614Z,85.04
2019-04-03T04:47:30.437Z,85.61
2019-04-03T04:48:30.415Z,83.90
2019-04-03T04:49:30.327Z,83.33
2019-04-03T04:50:30.275Z,82.95
2019-04-03T04:51:30.404Z,80.38
2019-04-03T04:52:30.170Z,81.90
2019-04-03T04:53:30.245Z,82.86
2019-04-03T04:54:30.618Z,80.66
2019-04-03T04:55:31.017Z,81.24
2019-04-03T04:56:29.958Z,80.47
2019-04-03T04:57:29.961Z,78.96
2019-04-03T04:58:29.891Z,81.62
2019-04-03T04:59:29.810Z,81.14
2019-04-03T05:00:30.295Z,81.62
2019-04-03T05:01:29.692Z,81.24
2019-04-03T05:02:29.635Z,79.52
2019-04-03T05:03:29.616Z,82.38
2019-04-03T05:04:29.534Z,83.04
2019-04-03T05:05:31.074Z,83.23
2019-04-03T05:06:29.916Z,83.04
2019-04-03T05:07:30.821Z,79.24
2019-04-03T05:08:30.859Z,82.67
2019-04-03T05:09:29.259Z,81.90
2019-04-03T05:10:29.239Z,81.62
2019-04-03T05:11:29.310Z,80.47
2019-04-03T05:12:29.100Z,80.86
2019-04-03T05:13:29.044Z,79.43
2019-04-03T05:14:29.035Z,78.57
2019-04-03T05:15:28.937Z,77.15
2019-04-03T05:16:28.886Z,77.24
2019-04-03T05:17:28.831Z,75.62
2019-04-03T05:18:29.330Z,76.20
2019-04-03T05:19:28.759Z,76.01
2019-04-03T05:20:28.675Z,76.01
2019-04-03T05:21:28.615Z,75.91
2019-04-03T05:22:28.602Z,76.10
2019-04-03T05:23:28.657Z,76.48
2019-04-03T05:24:28.933Z,76.01
2019-04-03T05:25:29.859Z,77.24
2019-04-03T05:26:28.763Z,76.67
2019-04-03T05:27:28.334Z,76.67
2019-04-03T05:28:28.241Z,77.05
2019-04-03T05:29:28.191Z,76.20
2019-04-03T05:30:28.132Z,76.20
2019-04-03T05:31:28.082Z,74.29
2019-04-03T05:32:28.059Z,72.77
2019-04-03T05:33:27.970Z,73.25
2019-04-03T05:34:27.922Z,74.10
2019-04-03T05:35:27.902Z,73.25
2019-04-03T05:36:27.808Z,72.86
2019-04-03T05:37:28.035Z,74.10
2019-04-03T05:38:27.703Z,74.07
2019-04-03T05:39:27.854Z,73.53
2019-04-03T05:40:27.598Z,76.10
2019-04-03T05:41:28.337Z,74.73
2019-04-03T05:42:29.164Z,73.15
2019-04-03T05:43:30.379Z,73.21
2019-04-03T05:44:27.464Z,72.58
2019-04-03T05:45:27.324Z,73.59
2019-04-03T05:46:27.302Z,74.10
2019-04-03T05:47:27.248Z,73.34
2019-04-03T05:48:27.163Z,73.59
2019-04-03T05:49:27.322Z,74.01
2019-04-03T05:50:27.228Z,75.34
2019-04-03T05:51:29.146Z,74.77
2019-04-03T05:52:27.195Z,75.96
2019-04-03T05:53:26.894Z,74.48
2019-04-03T05:54:26.841Z,75.15
2019-04-03T05:55:26.785Z,76.67
2019-04-03T05:56:26.764Z,76.48
2019-04-03T05:57:28.624Z,76.57
2019-04-03T05:58:26.627Z,76.48
2019-04-03T05:59:26.577Z,74.10
2019-04-03T06:00:26.524Z,78.29
2019-04-03T06:01:26.837Z,76.29
2019-04-03T06:02:26.408Z,74.67
2019-04-03T06:03:38.168Z,76.10
2019-04-03T06:04:26.303Z,76.29
2019-04-03T06:05:26.249Z,75.91
2019-04-03T06:06:26.240Z,76.29
2019-04-03T06:07:26.416Z,76.86
2019-04-03T06:08:26.088Z,78.48
2019-04-03T06:09:26.033Z,77.34
2019-04-03T06:10:27.882Z,78.00
2019-04-03T06:11:25.961Z,76.76
2019-04-03T06:12:25.876Z,76.29
2019-04-03T06:13:25.820Z,76.57
2019-04-03T06:14:25.832Z,76.96
2019-04-03T06:15:25.713Z,76.76
2019-04-03T06:16:25.697Z,76.10
2019-04-03T06:17:25.613Z,76.48
2019-04-03T06:18:26.515Z,77.72
2019-04-03T06:19:25.496Z,77.53
2019-04-03T06:20:25.444Z,76.48
2019-04-03T06:21:25.423Z,75.53
2019-04-03T06:22:25.338Z,73.44
2019-04-03T06:23:25.284Z,76.10
2019-04-03T06:24:25.242Z,74.77
2019-04-03T06:25:28.926Z,75.81
2019-04-03T06:26:25.362Z,75.53
2019-04-03T06:27:27.588Z,75.62
2019-04-03T06:28:25.037Z,75.91
2019-04-03T06:29:24.962Z,74.87
2019-04-03T06:30:25.828Z,76.48
2019-04-03T06:31:26.450Z,76.10
2019-04-03T06:32:25.053Z,76.29
2019-04-03T06:33:24.920Z,74.29
2019-04-03T06:34:24.742Z,77.24
2019-04-03T06:35:24.664Z,79.05
2019-04-03T06:36:24.581Z,75.81
2019-04-03T06:37:24.532Z,74.77
2019-04-03T06:38:25.189Z,76.39
2019-04-03T06:39:24.422Z,75.24
2019-04-03T06:40:24.368Z,75.72
2019-04-03T06:41:24.342Z,74.77
2019-04-03T06:42:24.292Z,72.11
2019-04-03T06:43:24.206Z,73.63
2019-04-03T06:44:24.152Z,74.29
2019-04-03T06:45:26.170Z,70.10
2019-04-03T06:46:24.079Z,71.34
2019-04-03T06:47:24.060Z,72.11
2019-04-03T06:48:23.939Z,72.07
2019-04-03T06:49:23.935Z,72.67
2019-04-03T06:50:23.828Z,69.82
2019-04-03T06:51:23.775Z,68.68
2019-04-03T06:52:23.723Z,72.11
2019-04-03T06:53:27.412Z,73.25
2019-04-03T06:54:23.646Z,71.53
2019-04-03T06:55:25.356Z,70.10
2019-04-03T06:56:23.697Z,70.30
2019-04-03T06:57:23.450Z,70.36
2019-04-03T06:58:27.334Z,70.01
2019-04-03T06:59:23.345Z,71.53
2019-04-03T07:00:23.507Z,73.44
2019-04-03T07:01:23.243Z,74.87
2019-04-03T07:02:23.179Z,71.34
2019-04-03T07:03:23.201Z,69.35
2019-04-03T07:04:23.071Z,70.68
2019-04-03T07:05:23.094Z,69.25
2019-04-03T07:06:23.075Z,69.82
2019-04-03T07:07:33.509Z,73.34
2019-04-03T07:08:33.109Z,72.67
2019-04-03T07:09:33.769Z,72.11
2019-04-03T07:10:25.618Z,75.43
2019-04-03T07:11:24.037Z,73.25
2019-04-03T07:12:22.671Z,74.87
2019-04-03T07:13:22.589Z,73.25
2019-04-03T07:14:24.035Z,70.49
2019-04-03T07:15:24.557Z,70.20
2019-04-03T07:16:22.427Z,73.53
2019-04-03T07:17:22.369Z,73.72
2019-04-03T07:18:22.318Z,74.20
2019-04-03T07:19:22.296Z,71.25
2019-04-03T07:20:22.215Z,73.15
2019-04-03T07:21:22.725Z,74.96
2019-04-03T07:22:22.134Z,73.72
2019-04-03T07:23:22.047Z,72.58
2019-04-03T07:24:21.997Z,73.15
2019-04-03T07:25:21.976Z,72.11
2019-04-03T07:26:21.886Z,76.01
2019-04-03T07:27:21.831Z,74.48
2019-04-03T07:28:22.031Z,73.63
2019-04-03T07:29:24.638Z,76.67
2019-04-03T07:30:22.426Z,76.67
2019-04-03T07:31:24.335Z,74.58
2019-04-03T07:32:21.561Z,74.67
2019-04-03T07:33:21.511Z,75.72
2019-04-03T07:34:21.484Z,73.63
2019-04-03T07:35:21.406Z,74.77
2019-04-03T07:36:21.348Z,76.86
2019-04-03T07:37:21.483Z,76.39
2019-04-03T07:38:21.872Z,77.24
2019-04-03T07:39:21.183Z,76.96
2019-04-03T07:40:21.454Z,75.62
2019-04-03T07:41:23.043Z,74.01
2019-04-03T07:42:21.022Z,76.20
2019-04-03T07:43:20.971Z,76.48
2019-04-03T07:44:20.919Z,76.48
2019-04-03T07:45:20.893Z,76.29
2019-04-03T07:46:20.808Z,75.15
2019-04-03T07:47:20.759Z,76.39
2019-04-03T07:48:20.735Z,76.20
2019-04-03T07:49:20.643Z,75.72
2019-04-03T07:50:20.592Z,76.29
2019-04-03T07:51:20.537Z,76.39
2019-04-03T07:52:20.514Z,75.15
2019-04-03T07:53:20.520Z,74.10
2019-04-03T07:54:22.058Z,75.53
2019-04-03T07:55:20.596Z,75.15
2019-04-03T07:56:20.268Z,73.06
2019-04-03T07:57:20.246Z,74.87
2019-04-03T07:58:20.159Z,76.20
2019-04-03T07:59:20.108Z,74.14
2019-04-03T08:00:20.180Z,77.24
2019-04-03T08:01:19.997Z,78.57
2019-04-03T08:02:20.052Z,79.57
2019-04-03T08:03:20.703Z,79.57
2019-04-03T08:04:20.090Z,77.91
2019-04-03T08:05:19.822Z,79.81
2019-04-03T08:06:19.866Z,79.57
2019-04-03T08:07:19.685Z,78.52
2019-04-03T08:08:19.621Z,78.52
2019-04-03T08:09:19.566Z,79.19
2019-04-03T08:10:19.692Z,79.57
2019-04-03T08:11:19.461Z,78.33
2019-04-03T08:12:19.617Z,78.80
2019-04-03T08:13:19.386Z,78.33
2019-04-03T08:14:19.880Z,76.52
2019-04-03T08:15:19.324Z,80.42
2019-04-03T08:16:19.451Z,77.28
2019-04-03T08:17:19.520Z,78.71
2019-04-03T08:18:21.473Z,78.52
2019-04-03T08:19:19.031Z,77.85
2019-04-03T08:20:20.039Z,80.04
2019-04-03T08:21:18.926Z,79.09
2019-04-03T08:22:18.877Z,77.00
2019-04-03T08:23:18.875Z,80.90
2019-04-03T08:24:18.763Z,82.04
2019-04-03T08:25:18.709Z,80.99
2019-04-03T08:26:19.810Z,79.19
2019-04-03T08:27:18.647Z,80.23
2019-04-03T08:28:18.553Z,80.80
2019-04-03T08:29:18.824Z,78.33
2019-04-03T08:30:18.443Z,80.23
2019-04-03T08:31:18.393Z,82.14
2019-04-03T08:32:18.416Z,80.13
2019-04-03T08:33:23.739Z,80.71
2019-04-03T08:34:18.815Z,83.37
2019-04-03T08:35:21.784Z,84.52
2019-04-03T08:36:24.961Z,84.04
2019-04-03T08:37:28.459Z,82.32
2019-04-03T08:38:18.211Z,82.42
2019-04-03T08:39:17.972Z,83.41
2019-04-03T08:40:20.183Z,81.03
2019-04-03T08:41:17.855Z,82.08
2019-04-03T08:42:18.138Z,80.55
2019-04-03T08:43:17.782Z,81.89
2019-04-03T08:44:18.149Z,83.13
2019-04-03T08:45:20.571Z,83.41
2019-04-03T08:46:17.590Z,82.23
2019-04-03T08:47:17.541Z,84.17
2019-04-03T08:48:18.094Z,84.36
2019-04-03T08:49:17.436Z,79.80
2019-04-03T08:50:17.378Z,80.55
2019-04-03T08:51:17.411Z,79.70
2019-04-03T08:52:17.273Z,73.89
2019-04-03T08:53:17.250Z,78.08
2019-04-03T08:54:17.235Z,78.56
2019-04-03T08:55:17.173Z,82.27
2019-04-03T08:56:17.571Z,83.51
2019-04-03T08:57:19.775Z,85.32
2019-04-03T08:58:17.181Z,86.46
2019-04-03T08:59:17.163Z,85.51
2019-04-03T09:00:16.858Z,89.03
2019-04-03T09:01:16.796Z,83.61
2019-04-03T09:02:16.747Z,82.18
2019-04-03T09:03:16.726Z,90.08
2019-04-03T09:04:17.430Z,88.41
2019-04-03T09:05:17.030Z,85.93
2019-04-03T09:06:16.535Z,84.88
2019-04-03T09:07:16.514Z,91.46
2019-04-03T09:08:16.431Z,89.36
2019-04-03T09:09:16.375Z,88.70
2019-04-03T09:10:16.323Z,89.36
2019-04-03T09:11:16.331Z,90.22
2019-04-03T09:12:16.259Z,87.07
2019-04-03T09:13:19.092Z,90.45
2019-04-03T09:14:16.512Z,89.03
2019-04-03T09:15:16.061Z,90.12
2019-04-03T09:16:16.052Z,96.61
2019-04-03T09:17:15.960Z,89.83
2019-04-03T09:18:16.292Z,95.89
2019-04-03T09:19:17.197Z,96.08
2019-04-03T09:20:15.799Z,92.36
2019-04-03T09:21:16.052Z,89.31
2019-04-03T09:22:15.696Z,97.80
2019-04-03T09:23:15.815Z,99.99
2019-04-03T09:24:15.845Z,97.99
2019-04-03T09:25:15.574Z,99.99
2019-04-03T09:26:15.502Z,97.56
2019-04-03T09:27:15.441Z,95.41
2019-04-03T09:28:15.391Z,99.99
2019-04-03T09:29:15.462Z,99.43
2019-04-03T09:30:16.163Z,99.99
2019-04-03T09:31:17.153Z,99.99
2019-04-03T09:32:15.184Z,99.99
2019-04-03T09:33:15.134Z,99.99
2019-04-03T09:34:15.110Z,93.74
2019-04-03T09:35:15.068Z,99.99
2019-04-03T09:36:14.984Z,96.42
2019-04-03T09:37:17.596Z,99.99
2019-04-03T09:38:15.152Z,97.71
2019-04-03T09:39:15.111Z,97.80
2019-04-03T09:40:16.819Z,98.56
2019-04-03T09:41:14.758Z,99.13
2019-04-03T09:42:14.714Z,99.13
2019-04-03T09:43:14.630Z,97.99
2019-04-03T09:44:14.578Z,99.99
2019-04-03T09:45:14.526Z,98.42
2019-04-03T09:46:14.511Z,97.37
2019-04-03T09:47:14.423Z,94.41
2019-04-03T09:48:14.373Z,97.89
2019-04-03T09:49:14.323Z,93.22
2019-04-03T09:50:14.805Z,92.08
2019-04-03T09:51:14.295Z,90.55
2019-04-03T09:52:14.182Z,94.46
2019-04-03T09:53:14.124Z,92.98
2019-04-03T09:54:14.101Z,97.08
2019-04-03T09:55:14.254Z,95.17
2019-04-03T09:56:14.286Z,95.36
2019-04-03T09:57:13.914Z,91.84
2019-04-03T09:58:13.860Z,94.51
2019-04-03T09:59:15.481Z,90.60
2019-04-03T10:00:13.762Z,91.36
2019-04-03T10:01:17.708Z,94.41
2019-04-03T10:02:13.657Z,91.36
2019-04-03T10:03:13.601Z,86.22
2019-04-03T10:04:13.567Z,87.84
2019-04-03T10:05:13.512Z,89.46
2019-04-03T10:06:13.482Z,90.31
2019-04-03T10:07:13.439Z,88.03
2019-04-03T10:08:13.674Z,89.36
2019-04-03T10:09:13.293Z,93.65
2019-04-03T10:10:14.073Z,88.45
2019-04-03T10:11:15.539Z,88.07
2019-04-03T10:12:13.169Z,89.84
2019-04-03T10:13:13.337Z,85.17
2019-04-03T10:14:13.038Z,90.22
2019-04-03T10:15:12.990Z,86.32
2019-04-03T10:16:15.809Z,87.74
2019-04-03T10:17:12.906Z,88.89
2019-04-03T10:18:12.958Z,87.27
2019-04-03T10:19:14.188Z,88.98
2019-04-03T10:20:12.718Z,85.08
2019-04-03T10:21:12.667Z,84.03
2019-04-03T10:22:12.916Z,83.59
2019-04-03T10:23:12.609Z,87.31
2019-04-03T10:24:12.510Z,89.36
2019-04-03T10:25:12.587Z,83.69
2019-04-03T10:26:12.404Z,87.74
2019-04-03T10:27:12.602Z,89.79
2019-04-03T10:28:14.785Z,83.84
2019-04-03T10:29:12.250Z,89.94
2019-04-03T10:30:12.243Z,88.26
2019-04-03T10:31:12.149Z,87.60
2019-04-03T10:32:12.688Z,82.54
2019-04-03T10:33:12.081Z,85.88
2019-04-03T10:34:13.712Z,88.64
2019-04-03T10:35:11.960Z,84.07
2019-04-03T10:36:12.317Z,83.69
2019-04-03T10:37:12.166Z,89.60
2019-04-03T10:38:12.054Z,95.51
2019-04-03T10:39:11.727Z,90.55
2019-04-03T10:40:11.996Z,96.27
2019-04-03T10:41:12.029Z,90.74
2019-04-03T10:42:11.570Z,91.64
2019-04-03T10:43:11.653Z,92.88
2019-04-03T10:44:11.825Z,94.12
2019-04-03T10:45:11.447Z,89.45
2019-04-03T10:46:11.360Z,99.66
2019-04-03T10:47:11.317Z,96.51
2019-04-03T10:48:11.292Z,94.22
2019-04-03T10:49:11.213Z,94.17
2019-04-03T10:50:11.159Z,99.99
2019-04-03T10:51:11.134Z,99.99
2019-04-03T10:52:13.339Z,95.12
2019-04-03T10:53:11.001Z,95.70
2019-04-03T10:54:10.983Z,99.99
2019-04-03T10:55:11.234Z,99.99
2019-04-03T10:56:11.111Z,99.99
2019-04-03T10:57:10.794Z,99.99
2019-04-03T10:58:10.744Z,99.56
2019-04-03T10:59:13.602Z,99.99
2019-04-03T11:00:10.646Z,96.84
2019-04-03T11:01:10.623Z,94.08
2019-04-03T11:02:10.867Z,95.89
2019-04-03T11:03:10.608Z,99.13
2019-04-03T11:04:10.437Z,96.36
2019-04-03T11:05:10.744Z,95.79
2019-04-03T11:06:10.334Z,97.61
2019-04-03T11:07:10.283Z,94.56
2019-04-03T11:08:10.479Z,96.08
2019-04-03T11:09:10.386Z,95.89
2019-04-03T11:10:10.160Z,97.70
2019-04-03T11:11:10.077Z,97.41
2019-04-03T11:12:10.633Z,96.75
2019-04-03T11:13:10.055Z,94.74
2019-04-03T11:14:09.917Z,94.17
2019-04-03T11:15:11.553Z,95.84
2019-04-03T11:16:09.818Z,94.89
2019-04-03T11:17:09.793Z,90.31
2019-04-03T11:18:09.719Z,94.60
2019-04-03T11:19:09.661Z,93.27
2019-04-03T11:20:10.774Z,95.36
2019-04-03T11:21:10.909Z,92.98
2019-04-03T11:22:09.521Z,94.89
2019-04-03T11:23:09.657Z,93.55
2019-04-03T11:24:09.410Z,94.51
2019-04-03T11:25:09.639Z,94.03
2019-04-03T11:26:09.328Z,92.50
2019-04-03T11:27:09.244Z,92.69
2019-04-03T11:28:09.343Z,90.03
2019-04-03T11:29:10.449Z,90.50
2019-04-03T11:30:11.343Z,90.50
2019-04-03T11:31:09.035Z,90.50
2019-04-03T11:32:09.916Z,92.13
2019-04-03T11:33:09.199Z,90.70
2019-04-03T11:34:08.877Z,89.79
2019-04-03T11:35:08.858Z,93.12
2019-04-03T11:36:08.773Z,91.79
2019-04-03T11:37:08.768Z,89.03
2019-04-03T11:38:14.222Z,91.03
2019-04-03T11:39:14.976Z,93.22
2019-04-03T11:40:08.568Z,93.03
2019-04-03T11:41:14.452Z,95.51
2019-04-03T11:42:08.741Z,97.66
2019-04-03T11:43:08.696Z,95.37
2019-04-03T11:44:08.366Z,95.37
2019-04-03T11:45:08.303Z,87.49
2019-04-03T11:46:08.356Z,97.71
2019-04-03T11:47:08.260Z,99.90
2019-04-03T11:48:08.185Z,97.89
2019-04-03T11:49:08.096Z,99.99
2019-04-03T11:50:08.073Z,99.76
2019-04-03T11:51:07.995Z,95.75
2019-04-03T11:52:08.402Z,99.99
2019-04-03T11:53:08.373Z,99.43
2019-04-03T11:54:08.613Z,99.99
2019-04-03T11:55:10.085Z,99.90
2019-04-03T11:56:07.868Z,98.18
2019-04-03T11:57:07.718Z,99.99
2019-04-03T11:58:07.670Z,99.99
2019-04-03T11:59:07.619Z,99.99
2019-04-03T12:00:07.543Z,99.99
2019-04-03T12:01:07.705Z,99.99
2019-04-03T12:02:07.842Z,99.99
2019-04-03T12:03:07.815Z,99.99
2019-04-03T12:04:07.397Z,99.99
2019-04-03T12:05:07.283Z,99.99
2019-04-03T12:06:07.235Z,99.99
2019-04-03T12:07:07.491Z,99.99
2019-04-03T12:08:07.455Z,99.99
2019-04-03T12:09:07.086Z,99.99
2019-04-03T12:10:07.035Z,99.99
2019-04-03T12:11:07.512Z,99.99
2019-04-03T12:12:09.441Z,99.99
2019-04-03T12:13:07.067Z,99.99
2019-04-03T12:14:06.838Z,99.99
2019-04-03T12:15:06.785Z,99.99
2019-04-03T12:16:06.771Z,99.99
2019-04-03T12:17:06.742Z,99.99
2019-04-03T12:18:06.639Z,99.99
2019-04-03T12:19:07.073Z,99.99
2019-04-03T12:20:08.832Z,99.99
2019-04-03T12:21:07.443Z,99.99
2019-04-03T12:22:06.430Z,99.99
2019-04-03T12:23:06.377Z,99.99
2019-04-03T12:24:06.373Z,99.99
2019-04-03T12:25:06.283Z,99.99
2019-04-03T12:26:06.225Z,99.99
2019-04-03T12:27:06.179Z,99.99
2019-04-03T12:28:07.339Z,99.99
2019-04-03T12:29:08.034Z,99.99
2019-04-03T12:30:06.117Z,99.99
2019-04-03T12:31:06.131Z,99.99
2019-04-03T12:32:07.784Z,99.99
2019-04-03T12:33:05.895Z,99.99
2019-04-03T12:34:06.828Z,99.99
2019-04-03T12:35:08.827Z,99.99
2019-04-03T12:36:06.867Z,99.99
2019-04-03T12:37:05.974Z,99.99
2019-04-03T12:38:05.880Z,99.99
2019-04-03T12:39:05.605Z,99.99
2019-04-03T12:40:05.528Z,99.99
2019-04-03T12:41:06.066Z,99.99
2019-04-03T12:42:08.386Z,99.99
2019-04-03T12:43:05.422Z,99.99
2019-04-03T12:44:05.472Z,99.99
2019-04-03T12:45:05.317Z,99.99
2019-04-03T12:46:05.236Z,99.99
2019-04-03T12:47:11.861Z,99.99
2019-04-03T12:48:05.128Z,99.99
2019-04-03T12:49:06.711Z,99.99
2019-04-03T12:50:05.323Z,99.99
2019-04-03T12:51:05.423Z,99.99
2019-04-03T12:52:05.205Z,99.99